Accueil
METAR-TAF:

METAR-TAF

Aéroports :

Aéroport de Morlaix Ploujean

Morlaix, France

latitude: 48-36N, longitude: 3-49W, altitude: 84 m

Observation

Le bulletin a été fait il y a 44 minutes, à 08:00 UTC
Vent 9 kt de ouest/nord-ouest
Température 16°C
Humidité 94%
Pression 1020 hPa
Visibilité 10 km ou plus
Nuages fragmentés à une hauteur de 600 ft
Ciel couvert à une hauteur de 1200 ft

METAR: LFRU 140800Z AUTO 30009KT 9999 BKN006 OVC012 16/15 Q1020

Heure: 10:44 (08:44 UTC)


TAF: absent

Observations et prévisions météorologiques de plus de 4000 aéroports (messages METAR et TAF).

Les stations disponibles sont représentées par des disques jaunes et rouges sur la carte.

Passer la souris dessus pour voir le nom de la station.

Cliquer dessus pour voir les observations et prévisions météorologiques.

Pour changer de carte: cliquez sur les boutons verts avec une croix noire pour zoomer, sur le bouton vert avec un tiret pour effectuer un zoom arrière, ou sur les flèches vertes pour les cartes adjacentes.


METAR-TAF: